sensor_id;sensor_type;location;lat;lon;timestamp;temperature;humidity
66568;DHT22;53422;49.296;6.900;2023-11-22T00:00:40;8.50;99.90
66568;DHT22;53422;49.296;6.900;2023-11-22T00:03:06;8.50;99.90
66568;DHT22;53422;49.296;6.900;2023-11-22T00:05:31;8.40;99.90
66568;DHT22;53422;49.296;6.900;2023-11-22T00:07:57;8.40;99.90
66568;DHT22;53422;49.296;6.900;2023-11-22T00:10:23;8.50;99.90
66568;DHT22;53422;49.296;6.900;2023-11-22T00:12:49;8.40;99.90
66568;DHT22;53422;49.296;6.900;2023-11-22T00:15:14;8.30;99.90
66568;DHT22;53422;49.296;6.900;2023-11-22T00:17:44;8.30;99.90
66568;DHT22;53422;49.296;6.900;2023-11-22T00:20:10;8.20;99.90
66568;DHT22;53422;49.296;6.900;2023-11-22T00:22:36;8.30;99.90
66568;DHT22;53422;49.296;6.900;2023-11-22T00:25:02;8.30;99.90
66568;DHT22;53422;49.296;6.900;2023-11-22T00:27:29;8.20;99.90
66568;DHT22;53422;49.296;6.900;2023-11-22T00:29:58;8.20;99.90
66568;DHT22;53422;49.296;6.900;2023-11-22T00:32:24;8.20;99.90
66568;DHT22;53422;49.296;6.900;2023-11-22T00:34:51;8.30;99.90
66568;DHT22;53422;49.296;6.900;2023-11-22T00:37:17;8.10;99.90
66568;DHT22;53422;49.296;6.900;2023-11-22T00:39:43;8.20;99.90
66568;DHT22;53422;49.296;6.900;2023-11-22T00:42:09;8.20;99.90
66568;DHT22;53422;49.296;6.900;2023-11-22T00:44:34;8.10;99.90
66568;DHT22;53422;49.296;6.900;2023-11-22T00:47:01;8.00;99.90
66568;DHT22;53422;49.296;6.900;2023-11-22T00:49:27;8.00;99.90
66568;DHT22;53422;49.296;6.900;2023-11-22T00:51:53;8.00;99.90
66568;DHT22;53422;49.296;6.900;2023-11-22T00:54:18;8.00;99.90
66568;DHT22;53422;49.296;6.900;2023-11-22T00:56:45;8.00;99.90
66568;DHT22;53422;49.296;6.900;2023-11-22T00:59:11;8.00;99.90
66568;DHT22;53422;49.296;6.900;2023-11-22T01:01:37;8.00;99.90
66568;DHT22;53422;49.296;6.900;2023-11-22T01:04:03;8.00;99.90
66568;DHT22;53422;49.296;6.900;2023-11-22T01:06:30;7.90;99.90
66568;DHT22;53422;49.296;6.900;2023-11-22T01:08:57;7.90;99.90
66568;DHT22;53422;49.296;6.900;2023-11-22T01:11:23;7.80;99.90
66568;DHT22;53422;49.296;6.900;2023-11-22T01:13:48;7.70;99.90
66568;DHT22;53422;49.296;6.900;2023-11-22T01:16:14;7.50;99.90
66568;DHT22;53422;49.296;6.900;2023-11-22T01:18:39;7.50;99.90
66568;DHT22;53422;49.296;6.900;2023-11-22T01:21:06;7.50;99.90
66568;DHT22;53422;49.296;6.900;2023-11-22T01:23:31;7.50;99.90
66568;DHT22;53422;49.296;6.900;2023-11-22T01:25:58;7.50;99.90
66568;DHT22;53422;49.296;6.900;2023-11-22T01:28:25;7.50;99.90
66568;DHT22;53422;49.296;6.900;2023-11-22T01:30:55;7.40;99.90
66568;DHT22;53422;49.296;6.900;2023-11-22T01:33:22;7.50;99.90
66568;DHT22;53422;49.296;6.900;2023-11-22T01:35:47;7.50;99.90
66568;DHT22;53422;49.296;6.900;2023-11-22T01:38:14;7.40;99.90
66568;DHT22;53422;49.296;6.900;2023-11-22T01:40:46;7.40;99.90
66568;DHT22;53422;49.296;6.900;2023-11-22T01:43:20;7.20;99.90
66568;DHT22;53422;49.296;6.900;2023-11-22T01:45:46;7.10;99.90
66568;DHT22;53422;49.296;6.900;2023-11-22T01:48:12;7.10;99.90
66568;DHT22;53422;49.296;6.900;2023-11-22T01:50:39;7.20;99.90
66568;DHT22;53422;49.296;6.900;2023-11-22T01:53:07;7.20;99.90
66568;DHT22;53422;49.296;6.900;2023-11-22T01:55:33;7.20;99.90
66568;DHT22;53422;49.296;6.900;2023-11-22T01:57:59;7.20;99.90
66568;DHT22;53422;49.296;6.900;2023-11-22T02:00:31;7.20;99.90
66568;DHT22;53422;49.296;6.900;2023-11-22T02:02:58;7.20;99.90
66568;DHT22;53422;49.296;6.900;2023-11-22T02:05:24;7.20;99.90
66568;DHT22;53422;49.296;6.900;2023-11-22T02:07:49;7.20;99.90
66568;DHT22;53422;49.296;6.900;2023-11-22T02:10:15;7.30;99.90
66568;DHT22;53422;49.296;6.900;2023-11-22T02:12:42;7.30;99.90
66568;DHT22;53422;49.296;6.900;2023-11-22T02:15:08;7.20;99.90
66568;DHT22;53422;49.296;6.900;2023-11-22T02:17:33;7.10;99.90
66568;DHT22;53422;49.296;6.900;2023-11-22T02:20:00;7.20;99.90
66568;DHT22;53422;49.296;6.900;2023-11-22T02:22:25;7.20;99.90
66568;DHT22;53422;49.296;6.900;2023-11-22T02:24:51;7.20;99.90
66568;DHT22;53422;49.296;6.900;2023-11-22T02:27:16;7.30;99.90
66568;DHT22;53422;49.296;6.900;2023-11-22T02:29:44;7.40;99.90
66568;DHT22;53422;49.296;6.900;2023-11-22T02:32:10;7.40;99.90
66568;DHT22;53422;49.296;6.900;2023-11-22T02:34:36;7.50;99.90
66568;DHT22;53422;49.296;6.900;2023-11-22T02:37:02;7.50;99.90
66568;DHT22;53422;49.296;6.900;2023-11-22T02:39:41;7.40;99.90
66568;DHT22;53422;49.296;6.900;2023-11-22T02:42:10;7.40;99.90
66568;DHT22;53422;49.296;6.900;2023-11-22T02:44:36;7.30;99.90
66568;DHT22;53422;49.296;6.900;2023-11-22T02:47:02;7.30;99.90
66568;DHT22;53422;49.296;6.900;2023-11-22T02:49:29;7.20;99.90
66568;DHT22;53422;49.296;6.900;2023-11-22T02:51:55;7.10;99.90
66568;DHT22;53422;49.296;6.900;2023-11-22T02:54:21;7.20;99.90
66568;DHT22;53422;49.296;6.900;2023-11-22T02:56:47;7.10;99.90
66568;DHT22;53422;49.296;6.900;2023-11-22T02:59:12;6.90;99.90
66568;DHT22;53422;49.296;6.900;2023-11-22T03:01:39;7.00;99.90
66568;DHT22;53422;49.296;6.900;2023-11-22T03:04:10;7.00;99.90
66568;DHT22;53422;49.296;6.900;2023-11-22T03:06:35;7.00;99.90
66568;DHT22;53422;49.296;6.900;2023-11-22T03:09:01;7.10;99.90
66568;DHT22;53422;49.296;6.900;2023-11-22T03:11:27;7.00;99.90
66568;DHT22;53422;49.296;6.900;2023-11-22T03:13:53;7.00;99.90
66568;DHT22;53422;49.296;6.900;2023-11-22T03:16:18;7.00;99.90
66568;DHT22;53422;49.296;6.900;2023-11-22T03:18:44;7.10;99.90
66568;DHT22;53422;49.296;6.900;2023-11-22T03:21:10;7.10;99.90
66568;DHT22;53422;49.296;6.900;2023-11-22T03:23:36;7.10;99.90
66568;DHT22;53422;49.296;6.900;2023-11-22T03:26:01;7.10;99.90
66568;DHT22;53422;49.296;6.900;2023-11-22T03:28:27;7.20;99.90
66568;DHT22;53422;49.296;6.900;2023-11-22T03:30:55;7.20;99.90
66568;DHT22;53422;49.296;6.900;2023-11-22T03:33:21;7.10;99.90
66568;DHT22;53422;49.296;6.900;2023-11-22T03:35:46;7.00;99.90
66568;DHT22;53422;49.296;6.900;2023-11-22T03:38:12;7.00;99.90
66568;DHT22;53422;49.296;6.900;2023-11-22T03:40:38;7.00;99.90
66568;DHT22;53422;49.296;6.900;2023-11-22T03:43:03;6.90;99.90
66568;DHT22;53422;49.296;6.900;2023-11-22T03:45:29;6.90;99.90
66568;DHT22;53422;49.296;6.900;2023-11-22T03:47:55;6.80;99.90
66568;DHT22;53422;49.296;6.900;2023-11-22T03:50:20;6.80;99.90
66568;DHT22;53422;49.296;6.900;2023-11-22T03:52:46;6.80;99.90
66568;DHT22;53422;49.296;6.900;2023-11-22T03:55:12;6.80;99.90
66568;DHT22;53422;49.296;6.900;2023-11-22T03:57:37;6.70;99.90
66568;DHT22;53422;49.296;6.900;2023-11-22T04:00:03;6.70;99.90
66568;DHT22;53422;49.296;6.900;2023-11-22T04:02:31;6.70;99.90
66568;DHT22;53422;49.296;6.900;2023-11-22T04:04:57;6.60;99.90
66568;DHT22;53422;49.296;6.900;2023-11-22T04:07:23;6.60;99.90
66568;DHT22;53422;49.296;6.900;2023-11-22T04:09:48;6.60;99.90
66568;DHT22;53422;49.296;6.900;2023-11-22T04:12:14;6.50;99.90
66568;DHT22;53422;49.296;6.900;2023-11-22T04:14:40;6.40;99.90
66568;DHT22;53422;49.296;6.900;2023-11-22T04:17:05;6.40;99.90
66568;DHT22;53422;49.296;6.900;2023-11-22T04:19:31;6.50;99.90
66568;DHT22;53422;49.296;6.900;2023-11-22T04:21:57;6.50;99.90
66568;DHT22;53422;49.296;6.900;2023-11-22T04:24:22;6.50;99.90
66568;DHT22;53422;49.296;6.900;2023-11-22T04:26:48;6.60;99.90
66568;DHT22;53422;49.296;6.900;2023-11-22T04:29:13;6.60;99.90
66568;DHT22;53422;49.296;6.900;2023-11-22T04:31:39;6.60;99.90
66568;DHT22;53422;49.296;6.900;2023-11-22T04:34:05;6.70;99.90
66568;DHT22;53422;49.296;6.900;2023-11-22T04:36:31;6.70;99.90
66568;DHT22;53422;49.296;6.900;2023-11-22T04:38:56;6.70;99.90
66568;DHT22;53422;49.296;6.900;2023-11-22T04:41:22;6.70;99.90
66568;DHT22;53422;49.296;6.900;2023-11-22T04:43:48;6.70;99.90
66568;DHT22;53422;49.296;6.900;2023-11-22T04:46:13;6.70;99.90
66568;DHT22;53422;49.296;6.900;2023-11-22T04:48:39;6.60;99.90
66568;DHT22;53422;49.296;6.900;2023-11-22T04:51:06;6.60;99.90
66568;DHT22;53422;49.296;6.900;2023-11-22T04:53:31;6.60;99.90
66568;DHT22;53422;49.296;6.900;2023-11-22T04:55:57;6.50;99.90
66568;DHT22;53422;49.296;6.900;2023-11-22T04:58:24;6.50;99.90
66568;DHT22;53422;49.296;6.900;2023-11-22T05:00:50;6.40;99.90
66568;DHT22;53422;49.296;6.900;2023-11-22T05:03:15;6.30;99.90
66568;DHT22;53422;49.296;6.900;2023-11-22T05:05:41;6.40;99.90
66568;DHT22;53422;49.296;6.900;2023-11-22T05:08:07;6.30;99.90
66568;DHT22;53422;49.296;6.900;2023-11-22T05:10:32;6.30;99.90
66568;DHT22;53422;49.296;6.900;2023-11-22T05:12:58;6.30;99.90
66568;DHT22;53422;49.296;6.900;2023-11-22T05:15:26;6.40;99.90
66568;DHT22;53422;49.296;6.900;2023-11-22T05:17:52;6.40;99.90
66568;DHT22;53422;49.296;6.900;2023-11-22T05:20:18;6.40;99.90
66568;DHT22;53422;49.296;6.900;2023-11-22T05:22:43;6.50;99.90
66568;DHT22;53422;49.296;6.900;2023-11-22T05:25:09;6.50;99.90
66568;DHT22;53422;49.296;6.900;2023-11-22T05:27:35;6.50;99.90
66568;DHT22;53422;49.296;6.900;2023-11-22T05:30:00;6.50;99.90
66568;DHT22;53422;49.296;6.900;2023-11-22T05:32:27;6.50;99.90
66568;DHT22;53422;49.296;6.900;2023-11-22T05:34:53;6.50;99.90
66568;DHT22;53422;49.296;6.900;2023-11-22T05:37:18;6.50;99.90
66568;DHT22;53422;49.296;6.900;2023-11-22T05:39:44;6.50;99.90
66568;DHT22;53422;49.296;6.900;2023-11-22T05:42:11;6.40;99.90
66568;DHT22;53422;49.296;6.900;2023-11-22T05:44:37;6.40;99.90
66568;DHT22;53422;49.296;6.900;2023-11-22T05:47:03;6.40;99.90
66568;DHT22;53422;49.296;6.900;2023-11-22T05:49:28;6.50;99.90
66568;DHT22;53422;49.296;6.900;2023-11-22T05:51:54;6.50;99.90
66568;DHT22;53422;49.296;6.900;2023-11-22T05:54:19;6.50;99.90
66568;DHT22;53422;49.296;6.900;2023-11-22T05:56:45;6.50;99.90
66568;DHT22;53422;49.296;6.900;2023-11-22T05:59:11;6.50;99.90
66568;DHT22;53422;49.296;6.900;2023-11-22T06:01:36;6.50;99.90
66568;DHT22;53422;49.296;6.900;2023-11-22T06:04:02;6.50;99.90
66568;DHT22;53422;49.296;6.900;2023-11-22T06:06:28;6.50;99.90
66568;DHT22;53422;49.296;6.900;2023-11-22T06:08:54;6.50;99.90
66568;DHT22;53422;49.296;6.900;2023-11-22T06:11:20;6.50;99.90
66568;DHT22;53422;49.296;6.900;2023-11-22T06:13:46;6.50;99.90
66568;DHT22;53422;49.296;6.900;2023-11-22T06:16:12;6.50;99.90
66568;DHT22;53422;49.296;6.900;2023-11-22T06:18:38;6.50;99.90
66568;DHT22;53422;49.296;6.900;2023-11-22T06:21:09;6.50;99.90
66568;DHT22;53422;49.296;6.900;2023-11-22T06:23:35;6.50;99.90
66568;DHT22;53422;49.296;6.900;2023-11-22T06:26:00;6.50;99.90
66568;DHT22;53422;49.296;6.900;2023-11-22T06:28:26;6.50;99.90
66568;DHT22;53422;49.296;6.900;2023-11-22T06:30:55;6.50;99.90
66568;DHT22;53422;49.296;6.900;2023-11-22T06:33:21;6.50;99.90
66568;DHT22;53422;49.296;6.900;2023-11-22T06:35:47;6.50;99.90
66568;DHT22;53422;49.296;6.900;2023-11-22T06:38:12;6.50;99.90
66568;DHT22;53422;49.296;6.900;2023-11-22T06:40:38;6.50;99.90
66568;DHT22;53422;49.296;6.900;2023-11-22T06:43:03;6.50;99.90
66568;DHT22;53422;49.296;6.900;2023-11-22T06:45:32;6.50;99.90
66568;DHT22;53422;49.296;6.900;2023-11-22T06:47:57;6.50;99.90
66568;DHT22;53422;49.296;6.900;2023-11-22T06:50:23;6.40;99.90
66568;DHT22;53422;49.296;6.900;2023-11-22T06:52:50;6.40;99.90
66568;DHT22;53422;49.296;6.900;2023-11-22T06:55:18;6.40;99.90
66568;DHT22;53422;49.296;6.900;2023-11-22T06:57:43;6.40;99.90
66568;DHT22;53422;49.296;6.900;2023-11-22T07:00:10;6.40;99.90
66568;DHT22;53422;49.296;6.900;2023-11-22T07:02:36;6.40;99.90
66568;DHT22;53422;49.296;6.900;2023-11-22T07:05:02;6.40;99.90
66568;DHT22;53422;49.296;6.900;2023-11-22T07:07:34;6.40;99.90
66568;DHT22;53422;49.296;6.900;2023-11-22T07:10:01;6.40;99.90
66568;DHT22;53422;49.296;6.900;2023-11-22T07:12:27;6.40;99.90
66568;DHT22;53422;49.296;6.900;2023-11-22T07:14:53;6.40;99.90
66568;DHT22;53422;49.296;6.900;2023-11-22T07:17:18;6.40;99.90
66568;DHT22;53422;49.296;6.900;2023-11-22T07:19:44;6.40;99.90
66568;DHT22;53422;49.296;6.900;2023-11-22T07:22:14;6.40;99.90
66568;DHT22;53422;49.296;6.900;2023-11-22T07:24:43;6.40;99.90
66568;DHT22;53422;49.296;6.900;2023-11-22T07:27:12;6.40;99.90
66568;DHT22;53422;49.296;6.900;2023-11-22T07:29:42;6.40;99.90
66568;DHT22;53422;49.296;6.900;2023-11-22T07:32:08;6.30;99.90
66568;DHT22;53422;49.296;6.900;2023-11-22T07:34:35;6.30;99.90
66568;DHT22;53422;49.296;6.900;2023-11-22T07:37:00;6.30;99.90
66568;DHT22;53422;49.296;6.900;2023-11-22T07:39:27;6.30;99.90
66568;DHT22;53422;49.296;6.900;2023-11-22T07:41:54;6.30;99.90
66568;DHT22;53422;49.296;6.900;2023-11-22T07:44:21;6.30;99.90
66568;DHT22;53422;49.296;6.900;2023-11-22T07:46:47;6.30;99.90
66568;DHT22;53422;49.296;6.900;2023-11-22T07:49:13;6.30;99.90
66568;DHT22;53422;49.296;6.900;2023-11-22T07:51:39;6.30;99.90
66568;DHT22;53422;49.296;6.900;2023-11-22T07:54:05;6.30;99.90
66568;DHT22;53422;49.296;6.900;2023-11-22T07:56:31;6.30;99.90
66568;DHT22;53422;49.296;6.900;2023-11-22T07:58:58;6.30;99.90
66568;DHT22;53422;49.296;6.900;2023-11-22T08:01:24;6.30;99.90
66568;DHT22;53422;49.296;6.900;2023-11-22T08:03:51;6.20;99.90
66568;DHT22;53422;49.296;6.900;2023-11-22T08:06:17;6.20;99.90
66568;DHT22;53422;49.296;6.900;2023-11-22T08:08:43;6.20;99.90
66568;DHT22;53422;49.296;6.900;2023-11-22T08:11:11;6.20;99.90
66568;DHT22;53422;49.296;6.900;2023-11-22T08:13:41;6.20;99.90
66568;DHT22;53422;49.296;6.900;2023-11-22T08:16:08;6.20;99.90
66568;DHT22;53422;49.296;6.900;2023-11-22T08:18:34;6.20;99.90
66568;DHT22;53422;49.296;6.900;2023-11-22T08:21:00;6.20;99.90
66568;DHT22;53422;49.296;6.900;2023-11-22T08:23:26;6.20;99.90
66568;DHT22;53422;49.296;6.900;2023-11-22T08:25:56;6.20;99.90
66568;DHT22;53422;49.296;6.900;2023-11-22T08:28:22;6.20;99.90
66568;DHT22;53422;49.296;6.900;2023-11-22T08:30:48;6.20;99.90
66568;DHT22;53422;49.296;6.900;2023-11-22T08:33:14;6.20;99.90
66568;DHT22;53422;49.296;6.900;2023-11-22T08:35:39;6.20;99.90
66568;DHT22;53422;49.296;6.900;2023-11-22T08:38:05;6.10;99.90
66568;DHT22;53422;49.296;6.900;2023-11-22T08:40:35;6.10;99.90
66568;DHT22;53422;49.296;6.900;2023-11-22T08:43:03;6.10;99.90
66568;DHT22;53422;49.296;6.900;2023-11-22T08:45:29;6.00;99.90
66568;DHT22;53422;49.296;6.900;2023-11-22T08:47:57;6.00;99.90
66568;DHT22;53422;49.296;6.900;2023-11-22T08:50:23;6.00;99.90
66568;DHT22;53422;49.296;6.900;2023-11-22T08:52:49;6.00;99.90
66568;DHT22;53422;49.296;6.900;2023-11-22T08:55:18;5.90;99.90
66568;DHT22;53422;49.296;6.900;2023-11-22T08:57:48;5.80;99.90
66568;DHT22;53422;49.296;6.900;2023-11-22T09:00:14;5.80;99.90
66568;DHT22;53422;49.296;6.900;2023-11-22T09:02:40;5.70;99.90
66568;DHT22;53422;49.296;6.900;2023-11-22T09:05:06;5.70;99.90
66568;DHT22;53422;49.296;6.900;2023-11-22T09:07:38;5.70;99.90
66568;DHT22;53422;49.296;6.900;2023-11-22T09:10:04;5.60;99.90
66568;DHT22;53422;49.296;6.900;2023-11-22T09:12:36;5.60;99.90
66568;DHT22;53422;49.296;6.900;2023-11-22T09:15:03;5.50;99.90
66568;DHT22;53422;49.296;6.900;2023-11-22T09:17:30;5.50;99.90
66568;DHT22;53422;49.296;6.900;2023-11-22T09:19:56;5.40;99.90
66568;DHT22;53422;49.296;6.900;2023-11-22T09:22:23;5.40;99.90
66568;DHT22;53422;49.296;6.900;2023-11-22T09:24:51;5.40;99.90
66568;DHT22;53422;49.296;6.900;2023-11-22T09:27:17;5.40;99.90
66568;DHT22;53422;49.296;6.900;2023-11-22T09:29:43;5.40;99.90
66568;DHT22;53422;49.296;6.900;2023-11-22T09:32:10;5.40;99.90
66568;DHT22;53422;49.296;6.900;2023-11-22T09:34:36;5.40;99.90
66568;DHT22;53422;49.296;6.900;2023-11-22T09:37:02;5.40;99.90
66568;DHT22;53422;49.296;6.900;2023-11-22T09:39:27;5.40;99.90
66568;DHT22;53422;49.296;6.900;2023-11-22T09:41:53;5.50;99.90
66568;DHT22;53422;49.296;6.900;2023-11-22T09:44:20;5.40;99.90
66568;DHT22;53422;49.296;6.900;2023-11-22T09:46:48;5.30;99.90
66568;DHT22;53422;49.296;6.900;2023-11-22T09:49:19;5.30;99.90
66568;DHT22;53422;49.296;6.900;2023-11-22T09:51:48;5.40;99.90
66568;DHT22;53422;49.296;6.900;2023-11-22T09:54:16;5.30;99.90
66568;DHT22;53422;49.296;6.900;2023-11-22T09:56:42;5.40;99.90
66568;DHT22;53422;49.296;6.900;2023-11-22T09:59:16;5.50;99.90
66568;DHT22;53422;49.296;6.900;2023-11-22T10:01:44;5.40;99.90
66568;DHT22;53422;49.296;6.900;2023-11-22T10:04:09;5.40;99.90
66568;DHT22;53422;49.296;6.900;2023-11-22T10:06:37;5.40;99.90
66568;DHT22;53422;49.296;6.900;2023-11-22T10:09:04;5.30;99.90
66568;DHT22;53422;49.296;6.900;2023-11-22T10:11:34;5.40;99.90
66568;DHT22;53422;49.296;6.900;2023-11-22T10:14:02;5.40;99.90
66568;DHT22;53422;49.296;6.900;2023-11-22T10:16:27;5.50;99.90
66568;DHT22;53422;49.296;6.900;2023-11-22T10:18:53;5.50;99.90
66568;DHT22;53422;49.296;6.900;2023-11-22T10:21:23;5.50;99.90
66568;DHT22;53422;49.296;6.900;2023-11-22T10:23:50;5.40;99.90
66568;DHT22;53422;49.296;6.900;2023-11-22T10:26:19;5.40;99.90
66568;DHT22;53422;49.296;6.900;2023-11-22T10:28:44;5.30;99.90
66568;DHT22;53422;49.296;6.900;2023-11-22T10:31:10;5.30;99.90
66568;DHT22;53422;49.296;6.900;2023-11-22T10:33:42;5.30;99.90
66568;DHT22;53422;49.296;6.900;2023-11-22T10:36:09;5.30;99.90
66568;DHT22;53422;49.296;6.900;2023-11-22T10:38:35;5.30;99.90
66568;DHT22;53422;49.296;6.900;2023-11-22T10:41:05;5.30;99.90
66568;DHT22;53422;49.296;6.900;2023-11-22T10:43:31;5.20;99.90
66568;DHT22;53422;49.296;6.900;2023-11-22T10:46:02;5.20;99.90
66568;DHT22;53422;49.296;6.900;2023-11-22T10:48:28;5.10;99.90
66568;DHT22;53422;49.296;6.900;2023-11-22T10:50:57;5.10;99.90
66568;DHT22;53422;49.296;6.900;2023-11-22T10:53:36;5.20;99.90
66568;DHT22;53422;49.296;6.900;2023-11-22T10:58:33;5.20;99.90
66568;DHT22;53422;49.296;6.900;2023-11-22T11:01:01;5.20;99.90
66568;DHT22;53422;49.296;6.900;2023-11-22T11:03:36;5.20;99.90
66568;DHT22;53422;49.296;6.900;2023-11-22T11:06:08;5.10;99.90
66568;DHT22;53422;49.296;6.900;2023-11-22T11:08:37;5.10;99.90
66568;DHT22;53422;49.296;6.900;2023-11-22T11:11:04;5.10;99.90
66568;DHT22;53422;49.296;6.900;2023-11-22T11:13:31;5.10;99.90
66568;DHT22;53422;49.296;6.900;2023-11-22T11:15:58;5.10;99.90
66568;DHT22;53422;49.296;6.900;2023-11-22T11:18:25;5.10;99.90
66568;DHT22;53422;49.296;6.900;2023-11-22T11:20:52;5.10;99.90
66568;DHT22;53422;49.296;6.900;2023-11-22T11:23:23;5.10;99.90
66568;DHT22;53422;49.296;6.900;2023-11-22T11:25:52;5.10;99.90
66568;DHT22;53422;49.296;6.900;2023-11-22T11:28:19;5.10;99.90
66568;DHT22;53422;49.296;6.900;2023-11-22T11:30:49;5.20;99.90
66568;DHT22;53422;49.296;6.900;2023-11-22T11:33:19;5.20;99.90
66568;DHT22;53422;49.296;6.900;2023-11-22T11:35:51;5.20;99.90
66568;DHT22;53422;49.296;6.900;2023-11-22T11:38:21;5.10;99.90
66568;DHT22;53422;49.296;6.900;2023-11-22T11:40:51;5.20;99.90
66568;DHT22;53422;49.296;6.900;2023-11-22T11:43:48;5.20;99.90
66568;DHT22;53422;49.296;6.900;2023-11-22T11:46:15;5.20;99.90
66568;DHT22;53422;49.296;6.900;2023-11-22T11:48:45;5.20;99.90
66568;DHT22;53422;49.296;6.900;2023-11-22T11:51:17;5.30;99.90
66568;DHT22;53422;49.296;6.900;2023-11-22T11:53:44;5.30;99.90
66568;DHT22;53422;49.296;6.900;2023-11-22T11:56:10;5.30;99.90
66568;DHT22;53422;49.296;6.900;2023-11-22T11:58:37;5.30;99.90
66568;DHT22;53422;49.296;6.900;2023-11-22T12:01:04;5.30;99.90
66568;DHT22;53422;49.296;6.900;2023-11-22T12:03:30;5.30;99.90
66568;DHT22;53422;49.296;6.900;2023-11-22T12:05:56;5.30;99.90
66568;DHT22;53422;49.296;6.900;2023-11-22T12:08:22;5.30;99.90
66568;DHT22;53422;49.296;6.900;2023-11-22T12:10:48;5.30;99.90
66568;DHT22;53422;49.296;6.900;2023-11-22T12:13:21;5.40;99.90
66568;DHT22;53422;49.296;6.900;2023-11-22T12:15:51;5.40;99.90
66568;DHT22;53422;49.296;6.900;2023-11-22T12:18:19;5.30;99.90
66568;DHT22;53422;49.296;6.900;2023-11-22T12:20:59;5.30;99.90
66568;DHT22;53422;49.296;6.900;2023-11-22T12:23:28;5.30;99.90
66568;DHT22;53422;49.296;6.900;2023-11-22T12:25:55;5.40;99.90
66568;DHT22;53422;49.296;6.900;2023-11-22T12:28:29;5.40;99.90
66568;DHT22;53422;49.296;6.900;2023-11-22T12:30:54;5.40;99.90
66568;DHT22;53422;49.296;6.900;2023-11-22T12:33:20;5.40;99.90
66568;DHT22;53422;49.296;6.900;2023-11-22T12:35:47;5.50;99.90
66568;DHT22;53422;49.296;6.900;2023-11-22T12:38:14;5.40;99.90
66568;DHT22;53422;49.296;6.900;2023-11-22T12:40:45;5.40;99.90
66568;DHT22;53422;49.296;6.900;2023-11-22T12:43:14;5.40;99.90
66568;DHT22;53422;49.296;6.900;2023-11-22T12:45:40;5.40;99.90
66568;DHT22;53422;49.296;6.900;2023-11-22T12:48:22;5.40;99.90
66568;DHT22;53422;49.296;6.900;2023-11-22T12:50:52;5.50;99.90
66568;DHT22;53422;49.296;6.900;2023-11-22T12:53:19;5.50;99.90
66568;DHT22;53422;49.296;6.900;2023-11-22T12:55:51;5.50;99.90
66568;DHT22;53422;49.296;6.900;2023-11-22T12:58:18;5.50;99.90
66568;DHT22;53422;49.296;6.900;2023-11-22T13:00:46;5.50;99.90
66568;DHT22;53422;49.296;6.900;2023-11-22T13:03:12;5.50;99.90
66568;DHT22;53422;49.296;6.900;2023-11-22T13:05:39;5.50;99.90
66568;DHT22;53422;49.296;6.900;2023-11-22T13:08:05;5.60;99.90
66568;DHT22;53422;49.296;6.900;2023-11-22T13:10:31;5.70;99.90
66568;DHT22;53422;49.296;6.900;2023-11-22T13:12:57;5.60;99.90
66568;DHT22;53422;49.296;6.900;2023-11-22T13:15:24;5.60;99.90
66568;DHT22;53422;49.296;6.900;2023-11-22T13:17:52;5.70;99.90
66568;DHT22;53422;49.296;6.900;2023-11-22T13:20:23;5.70;99.90
66568;DHT22;53422;49.296;6.900;2023-11-22T13:22:49;5.70;99.90
66568;DHT22;53422;49.296;6.900;2023-11-22T13:25:15;5.70;99.90
66568;DHT22;53422;49.296;6.900;2023-11-22T13:27:42;5.70;99.90
66568;DHT22;53422;49.296;6.900;2023-11-22T13:30:08;5.70;99.90
66568;DHT22;53422;49.296;6.900;2023-11-22T13:32:34;5.70;99.90
66568;DHT22;53422;49.296;6.900;2023-11-22T13:35:00;5.70;99.90
66568;DHT22;53422;49.296;6.900;2023-11-22T13:37:26;5.80;99.90
66568;DHT22;53422;49.296;6.900;2023-11-22T13:39:55;5.90;99.90
66568;DHT22;53422;49.296;6.900;2023-11-22T13:42:20;6.00;99.90
66568;DHT22;53422;49.296;6.900;2023-11-22T13:44:46;5.90;99.90
66568;DHT22;53422;49.296;6.900;2023-11-22T13:47:12;5.90;99.90
66568;DHT22;53422;49.296;6.900;2023-11-22T13:49:39;5.90;99.90
66568;DHT22;53422;49.296;6.900;2023-11-22T13:52:07;5.90;99.90
66568;DHT22;53422;49.296;6.900;2023-11-22T13:54:33;6.00;99.90
66568;DHT22;53422;49.296;6.900;2023-11-22T13:57:02;5.90;99.90
66568;DHT22;53422;49.296;6.900;2023-11-22T13:59:29;6.00;99.90
66568;DHT22;53422;49.296;6.900;2023-11-22T14:01:55;5.90;99.90
66568;DHT22;53422;49.296;6.900;2023-11-22T14:04:20;5.90;99.90
66568;DHT22;53422;49.296;6.900;2023-11-22T14:06:46;5.90;99.90
66568;DHT22;53422;49.296;6.900;2023-11-22T14:09:12;6.00;99.90
66568;DHT22;53422;49.296;6.900;2023-11-22T14:11:39;5.90;99.90
66568;DHT22;53422;49.296;6.900;2023-11-22T14:14:05;5.80;99.90
66568;DHT22;53422;49.296;6.900;2023-11-22T14:16:31;6.00;99.90
66568;DHT22;53422;49.296;6.900;2023-11-22T14:18:57;6.00;99.90
66568;DHT22;53422;49.296;6.900;2023-11-22T14:21:25;5.90;99.90
66568;DHT22;53422;49.296;6.900;2023-11-22T14:23:51;5.80;99.90
66568;DHT22;53422;49.296;6.900;2023-11-22T14:26:18;5.90;99.90
66568;DHT22;53422;49.296;6.900;2023-11-22T14:28:44;5.90;99.90
66568;DHT22;53422;49.296;6.900;2023-11-22T14:31:09;6.00;99.90
66568;DHT22;53422;49.296;6.900;2023-11-22T14:33:35;6.00;99.90
66568;DHT22;53422;49.296;6.900;2023-11-22T14:36:01;5.80;99.90
66568;DHT22;53422;49.296;6.900;2023-11-22T14:38:27;5.90;99.90
66568;DHT22;53422;49.296;6.900;2023-11-22T14:40:52;5.90;99.90
66568;DHT22;53422;49.296;6.900;2023-11-22T14:43:18;5.90;99.90
66568;DHT22;53422;49.296;6.900;2023-11-22T14:45:44;5.90;99.90
66568;DHT22;53422;49.296;6.900;2023-11-22T14:48:10;5.90;99.90
66568;DHT22;53422;49.296;6.900;2023-11-22T14:50:37;5.90;99.90
66568;DHT22;53422;49.296;6.900;2023-11-22T14:53:02;5.90;99.90
66568;DHT22;53422;49.296;6.900;2023-11-22T14:55:28;6.00;99.90
66568;DHT22;53422;49.296;6.900;2023-11-22T14:57:54;6.00;99.90
66568;DHT22;53422;49.296;6.900;2023-11-22T15:00:22;5.90;99.90
66568;DHT22;53422;49.296;6.900;2023-11-22T15:02:48;5.90;99.90
66568;DHT22;53422;49.296;6.900;2023-11-22T15:05:19;6.00;99.90
66568;DHT22;53422;49.296;6.900;2023-11-22T15:07:44;6.00;99.90
66568;DHT22;53422;49.296;6.900;2023-11-22T15:10:11;6.00;99.90
66568;DHT22;53422;49.296;6.900;2023-11-22T15:12:37;5.90;99.90
66568;DHT22;53422;49.296;6.900;2023-11-22T15:15:05;5.90;99.90
66568;DHT22;53422;49.296;6.900;2023-11-22T15:17:32;5.90;99.90
66568;DHT22;53422;49.296;6.900;2023-11-22T15:19:58;5.90;99.90
66568;DHT22;53422;49.296;6.900;2023-11-22T15:22:24;5.90;99.90
66568;DHT22;53422;49.296;6.900;2023-11-22T15:24:50;5.80;99.90
66568;DHT22;53422;49.296;6.900;2023-11-22T15:27:15;5.80;99.90
66568;DHT22;53422;49.296;6.900;2023-11-22T15:29:41;5.80;99.90
66568;DHT22;53422;49.296;6.900;2023-11-22T15:32:06;5.80;99.90
66568;DHT22;53422;49.296;6.900;2023-11-22T15:34:32;5.90;99.90
66568;DHT22;53422;49.296;6.900;2023-11-22T15:36:58;5.90;99.90
66568;DHT22;53422;49.296;6.900;2023-11-22T15:39:23;5.90;99.90
66568;DHT22;53422;49.296;6.900;2023-11-22T15:41:50;5.90;99.90
66568;DHT22;53422;49.296;6.900;2023-11-22T15:44:15;5.90;99.90